createdAt,value
2022-11-28T00:01:24.700Z,12.23
2022-11-28T00:03:53.763Z,12.05
2022-11-28T00:06:21.404Z,11.63
2022-11-28T00:08:48.698Z,12.95
2022-11-28T00:11:16.705Z,12.27
2022-11-28T00:13:43.679Z,12.05
2022-11-28T00:16:16.449Z,11.43
2022-11-28T00:18:43.498Z,11.88
2022-11-28T00:21:13.419Z,12.02
2022-11-28T00:23:43.638Z,12.77
2022-11-28T00:26:14.559Z,11.27
2022-11-28T00:28:41.196Z,12.48
2022-11-28T00:31:20.282Z,13.02
2022-11-28T00:33:47.367Z,13.00
2022-11-28T00:36:14.363Z,12.50
2022-11-28T00:38:43.566Z,13.15
2022-11-28T00:41:14.055Z,13.63
2022-11-28T00:43:41.783Z,12.27
2022-11-28T00:46:17.133Z,12.95
2022-11-28T00:48:44.189Z,11.98
2022-11-28T00:51:16.918Z,12.38
2022-11-28T00:53:47.193Z,12.52
2022-11-28T00:56:15.933Z,12.35
2022-11-28T00:58:42.856Z,13.80
2022-11-28T01:01:18.324Z,12.27
2022-11-28T01:03:45.517Z,12.57
2022-11-28T01:06:14.896Z,12.05
2022-11-28T01:08:43.225Z,13.13
2022-11-28T01:11:16.621Z,12.90
2022-11-28T01:13:43.156Z,12.48
2022-11-28T01:16:14.739Z,12.55
2022-11-28T01:18:41.869Z,13.20
2022-11-28T01:21:09.236Z,12.13
2022-11-28T01:23:36.214Z,13.52
2022-11-28T01:26:05.820Z,13.63
2022-11-28T01:28:33.086Z,13.13
2022-11-28T01:31:09.589Z,12.32
2022-11-28T01:33:36.546Z,12.10
2022-11-28T01:36:03.304Z,11.95
2022-11-28T01:38:39.527Z,11.90
2022-11-28T01:41:10.415Z,11.98
2022-11-28T01:43:37.557Z,13.30
2022-11-28T01:46:07.340Z,11.85
2022-11-28T01:48:42.117Z,12.48
2022-11-28T01:51:14.609Z,12.55
2022-11-28T01:53:45.321Z,11.20
2022-11-28T01:56:19.918Z,11.88
2022-11-28T01:58:52.029Z,12.00
2022-11-28T02:01:19.319Z,12.05
2022-11-28T02:03:48.432Z,13.52
2022-11-28T02:06:20.830Z,14.02
2022-11-28T02:08:52.421Z,13.45
2022-11-28T02:12:06.720Z,12.85
2022-11-28T02:14:54.118Z,12.65
2022-11-28T02:17:42.295Z,11.95
2022-11-28T02:20:41.928Z,12.15
2022-11-28T02:23:21.982Z,14.38
2022-11-28T02:26:08.769Z,13.70
2022-11-28T02:29:21.486Z,12.45
2022-11-28T02:32:11.736Z,13.88
2022-11-28T02:34:52.859Z,13.00
2022-11-28T02:37:41.817Z,13.68
2022-11-28T02:40:19.350Z,13.32
2022-11-28T02:42:57.601Z,13.52
2022-11-28T02:45:30.128Z,12.60
2022-11-28T02:48:05.104Z,12.40
2022-11-28T02:50:42.713Z,13.40
2022-11-28T02:53:14.346Z,14.10
2022-11-28T02:55:43.722Z,13.32
2022-11-28T02:58:11.934Z,13.52
2022-11-28T03:00:40.723Z,12.90
2022-11-28T03:03:22.235Z,13.20
2022-11-28T03:05:58.159Z,12.93
2022-11-28T03:08:47.773Z,12.32
2022-11-28T03:11:43.021Z,13.40
2022-11-28T03:14:24.004Z,13.13
2022-11-28T03:17:18.533Z,13.05
2022-11-28T03:20:16.573Z,13.63
2022-11-28T03:23:03.173Z,12.40
2022-11-28T03:25:55.099Z,12.43
2022-11-28T03:28:39.302Z,13.68
2022-11-28T03:31:15.274Z,12.70
2022-11-28T03:33:50.826Z,13.60
2022-11-28T03:36:22.826Z,12.85
2022-11-28T03:38:56.449Z,14.00
2022-11-28T03:41:31.702Z,14.30
2022-11-28T03:44:02.465Z,13.75
2022-11-28T03:46:36.962Z,13.32
2022-11-28T03:49:09.397Z,14.43
2022-11-28T03:51:43.031Z,14.23
2022-11-28T03:54:19.385Z,13.75
2022-11-28T03:56:55.526Z,13.60
2022-11-28T03:59:44.965Z,13.93
2022-11-28T04:02:18.850Z,15.35
2022-11-28T04:05:14.345Z,15.68
2022-11-28T04:08:01.367Z,13.90
2022-11-28T04:10:35.167Z,14.13
2022-11-28T04:13:10.618Z,13.75
2022-11-28T04:15:59.252Z,15.18
2022-11-28T04:19:08.239Z,15.90
2022-11-28T04:22:00.469Z,14.00
2022-11-28T04:24:37.033Z,15.65
2022-11-28T04:27:11.351Z,15.63
2022-11-28T04:29:47.614Z,14.90
2022-11-28T04:32:19.509Z,14.88
2022-11-28T04:34:50.733Z,15.82
2022-11-28T04:37:19.787Z,15.15
2022-11-28T04:39:52.345Z,15.13
2022-11-28T04:42:26.393Z,15.35
2022-11-28T04:45:04.429Z,15.00
2022-11-28T04:47:31.145Z,14.93
2022-11-28T04:49:59.973Z,14.57
2022-11-28T04:52:35.638Z,14.73
2022-11-28T04:55:19.083Z,15.70
2022-11-28T04:57:57.556Z,15.63
2022-11-28T05:00:27.151Z,14.23
2022-11-28T05:02:54.591Z,15.25
2022-11-28T05:05:27.365Z,14.63
2022-11-28T05:07:54.076Z,15.75
2022-11-28T05:10:22.858Z,14.60
2022-11-28T05:12:49.632Z,15.80
2022-11-28T05:15:19.383Z,14.38
2022-11-28T05:17:46.904Z,15.98
2022-11-28T05:20:16.272Z,14.13
2022-11-28T05:22:43.035Z,14.85
2022-11-28T05:25:09.766Z,14.88
2022-11-28T05:27:38.656Z,14.27
2022-11-28T05:30:06.576Z,14.30
2022-11-28T05:32:33.213Z,14.43
2022-11-28T05:35:04.184Z,14.43
2022-11-28T05:37:31.099Z,14.05
2022-11-28T05:39:57.652Z,14.48
2022-11-28T05:42:27.614Z,14.73
2022-11-28T05:44:54.302Z,14.77
2022-11-28T05:47:23.944Z,15.02
2022-11-28T05:49:50.560Z,13.88
2022-11-28T05:52:17.029Z,13.68
2022-11-28T05:54:47.197Z,13.70
2022-11-28T05:57:13.813Z,13.88
2022-11-28T05:59:40.540Z,14.00
2022-11-28T06:02:07.537Z,14.68
2022-11-28T06:04:34.251Z,14.38
2022-11-28T06:07:00.769Z,14.10
2022-11-28T06:09:27.223Z,14.23
2022-11-28T06:11:58.348Z,14.65
2022-11-28T06:14:24.872Z,15.85
2022-11-28T06:16:51.413Z,14.68
2022-11-28T06:19:18.322Z,15.93
2022-11-28T06:21:45.026Z,15.80
2022-11-28T06:24:13.754Z,14.85
2022-11-28T06:26:42.057Z,15.10
2022-11-28T06:29:08.542Z,16.63
2022-11-28T06:31:35.149Z,14.27
2022-11-28T06:34:06.153Z,15.90
2022-11-28T06:36:32.715Z,15.30
2022-11-28T06:38:59.294Z,15.73
2022-11-28T06:41:27.594Z,14.63
2022-11-28T06:43:55.514Z,12.65
2022-11-28T06:46:22.150Z,14.32
2022-11-28T06:48:52.410Z,14.77
2022-11-28T06:51:20.204Z,15.63
2022-11-28T06:53:46.780Z,14.52
2022-11-28T06:56:19.419Z,14.10
2022-11-28T06:58:47.043Z,15.25
2022-11-28T07:01:19.413Z,14.30
2022-11-28T07:03:48.522Z,14.15
2022-11-28T07:06:16.743Z,14.18
2022-11-28T07:08:43.808Z,14.68
2022-11-28T07:11:15.422Z,14.63
2022-11-28T07:13:46.342Z,14.48
2022-11-28T07:16:22.464Z,13.05
2022-11-28T07:18:51.918Z,13.65
2022-11-28T07:21:19.249Z,13.88
2022-11-28T07:23:48.299Z,13.45
2022-11-28T07:26:17.476Z,14.43
2022-11-28T07:28:44.821Z,14.32
2022-11-28T07:31:17.320Z,13.90
2022-11-28T07:33:46.505Z,14.65
2022-11-28T07:36:21.321Z,14.35
2022-11-28T07:38:49.852Z,13.10
2022-11-28T07:41:22.515Z,13.20
2022-11-28T07:43:57.338Z,14.32
2022-11-28T07:46:24.883Z,13.48
2022-11-28T07:48:51.571Z,16.02
2022-11-28T07:51:26.002Z,13.35
2022-11-28T07:53:52.890Z,14.32
2022-11-28T07:56:22.522Z,14.30
2022-11-28T07:58:49.777Z,13.68
2022-11-28T08:01:26.214Z,13.52
2022-11-28T08:03:55.558Z,13.05
2022-11-28T08:06:24.909Z,14.25
2022-11-28T08:08:52.415Z,14.90
2022-11-28T08:11:23.317Z,13.63
2022-11-28T08:13:51.898Z,14.43
2022-11-28T08:16:25.594Z,13.45
2022-11-28T08:18:53.080Z,12.30
2022-11-28T08:21:23.513Z,13.30
2022-11-28T08:23:52.092Z,13.02
2022-11-28T08:26:21.329Z,12.63
2022-11-28T08:28:50.653Z,12.27
2022-11-28T08:31:20.357Z,13.20
2022-11-28T08:33:52.219Z,12.77
2022-11-28T08:36:19.960Z,12.75
2022-11-28T08:39:03.242Z,14.32
2022-11-28T08:41:33.864Z,15.77
2022-11-28T08:44:00.570Z,15.85
2022-11-28T08:46:27.159Z,14.95
2022-11-28T08:48:53.706Z,14.18
2022-11-28T08:51:27.529Z,15.13
2022-11-28T08:53:59.080Z,14.43
2022-11-28T08:56:25.993Z,14.98
2022-11-28T08:58:54.295Z,14.73
2022-11-28T09:01:23.109Z,14.77
2022-11-28T09:03:50.623Z,15.18
2022-11-28T09:06:18.832Z,13.95
2022-11-28T09:08:45.685Z,14.35
2022-11-28T09:11:15.738Z,14.48
2022-11-28T09:13:42.282Z,15.07
2022-11-28T09:16:09.427Z,14.93
2022-11-28T09:18:36.399Z,14.18
2022-11-28T09:21:07.617Z,15.10
2022-11-28T09:23:34.369Z,14.52
2022-11-28T09:26:00.818Z,13.80
2022-11-28T09:28:30.614Z,13.88
2022-11-28T09:31:01.628Z,13.95
2022-11-28T09:33:28.234Z,13.25
2022-11-28T09:36:02.637Z,13.43
2022-11-28T09:38:29.097Z,13.38
2022-11-28T09:40:55.669Z,13.40
2022-11-28T09:43:48.577Z,13.95
2022-11-28T09:46:24.783Z,12.88
2022-11-28T09:48:56.588Z,13.02
2022-11-28T09:51:30.003Z,13.48
2022-11-28T09:54:21.607Z,12.90
2022-11-28T09:56:50.426Z,11.38
2022-11-28T09:59:22.734Z,12.02
2022-11-28T10:01:56.537Z,12.23
2022-11-28T10:04:46.304Z,11.15
2022-11-28T10:07:31.903Z,12.40
2022-11-28T10:10:40.417Z,11.77
2022-11-28T10:13:22.193Z,14.77
2022-11-28T10:16:07.294Z,11.65
2022-11-28T10:18:55.146Z,14.10
2022-11-28T10:21:23.357Z,12.77
2022-11-28T10:23:57.745Z,11.93
2022-11-28T10:26:37.376Z,12.38
2022-11-28T10:29:31.937Z,11.13
2022-11-28T10:32:02.209Z,11.52
2022-11-28T10:34:35.517Z,12.20
2022-11-28T10:37:10.681Z,12.00
2022-11-28T10:39:44.948Z,13.32
2022-11-28T10:42:21.385Z,12.20
2022-11-28T10:44:50.882Z,12.20
2022-11-28T10:47:22.244Z,13.57
2022-11-28T10:50:20.369Z,11.88
2022-11-28T10:52:54.649Z,12.00
2022-11-28T10:55:24.132Z,12.52
2022-11-28T10:58:18.208Z,12.40
2022-11-28T11:00:47.446Z,11.95
2022-11-28T11:03:17.498Z,12.95
2022-11-28T11:05:44.286Z,12.57
2022-11-28T11:08:41.002Z,13.60
2022-11-28T11:13:58.093Z,11.45
2022-11-28T11:16:24.734Z,12.48
2022-11-28T11:18:54.468Z,13.02
2022-11-28T11:21:24.463Z,12.10
2022-11-28T11:24:12.525Z,12.00
2022-11-28T11:26:43.488Z,13.02
2022-11-28T11:29:30.949Z,13.57
2022-11-28T11:32:05.197Z,12.15
2022-11-28T11:34:58.941Z,12.52
2022-11-28T11:37:38.071Z,12.20
2022-11-28T11:40:18.045Z,11.90
2022-11-28T11:42:55.725Z,12.15
2022-11-28T11:45:34.199Z,12.55
2022-11-28T11:48:06.650Z,11.98
2022-11-28T11:50:33.339Z,12.80
2022-11-28T11:53:14.542Z,12.73
2022-11-28T11:55:53.680Z,12.57
2022-11-28T11:58:24.188Z,12.45
2022-11-28T12:00:54.625Z,13.55
2022-11-28T12:03:31.541Z,13.07
2022-11-28T12:06:14.204Z,12.32
2022-11-28T12:08:52.260Z,12.50
2022-11-28T12:11:29.150Z,12.52
2022-11-28T12:14:05.509Z,12.75
2022-11-28T12:16:35.051Z,12.82
2022-11-28T12:19:16.877Z,13.25
2022-11-28T12:22:12.210Z,11.88
2022-11-28T12:25:13.516Z,11.60
2022-11-28T12:28:02.097Z,12.30
2022-11-28T12:30:44.730Z,12.25
2022-11-28T12:33:39.119Z,12.05
2022-11-28T12:36:12.108Z,11.60
2022-11-28T12:39:14.127Z,12.05
2022-11-28T12:42:11.331Z,12.52
2022-11-28T12:44:56.654Z,11.90
2022-11-28T12:48:04.592Z,12.00
2022-11-28T12:50:31.255Z,11.52
2022-11-28T12:53:03.683Z,11.20
2022-11-28T12:55:43.815Z,11.05
2022-11-28T12:58:38.979Z,10.38
2022-11-28T13:01:22.579Z,9.73
2022-11-28T13:04:19.729Z,10.45
2022-11-28T13:06:56.362Z,11.13
2022-11-28T13:09:28.987Z,10.68
2022-11-28T13:12:28.641Z,9.40
2022-11-28T13:14:57.917Z,10.68
2022-11-28T13:17:41.762Z,11.00
2022-11-28T13:20:22.962Z,10.32
2022-11-28T13:23:25.751Z,10.25
2022-11-28T13:26:06.551Z,9.95
2022-11-28T13:28:52.866Z,10.85
2022-11-28T13:31:40.632Z,10.25
2022-11-28T13:34:20.974Z,9.82
2022-11-28T13:40:08.233Z,9.88
2022-11-28T13:43:06.658Z,10.35
2022-11-28T13:45:39.236Z,10.15
2022-11-28T13:48:57.356Z,9.18
2022-11-28T13:51:31.896Z,10.20
2022-11-28T13:54:17.486Z,10.43
2022-11-28T13:57:16.722Z,10.43
2022-11-28T13:59:49.826Z,9.48
2022-11-28T14:02:26.487Z,9.75
2022-11-28T14:04:53.170Z,9.43
2022-11-28T14:07:28.891Z,10.10
2022-11-28T14:12:42.691Z,9.60
2022-11-28T14:15:21.946Z,10.57
2022-11-28T14:18:31.483Z,10.20
2022-11-28T14:21:11.512Z,9.07
2022-11-28T14:23:49.566Z,10.10
2022-11-28T14:26:35.712Z,9.70
2022-11-28T14:29:04.702Z,9.15
2022-11-28T14:31:35.771Z,9.68
2022-11-28T14:34:12.529Z,9.63
2022-11-28T14:36:42.132Z,9.48
2022-11-28T14:39:19.360Z,8.98
2022-11-28T14:42:08.034Z,8.98
2022-11-28T14:45:04.775Z,8.55
2022-11-28T14:47:34.952Z,8.52
2022-11-28T14:50:13.944Z,9.68
2022-11-28T14:52:42.077Z,8.48
2022-11-28T14:55:11.240Z,9.10
2022-11-28T14:58:02.153Z,8.40
2022-11-28T15:00:50.748Z,8.68
2022-11-28T15:03:37.261Z,8.32
2022-11-28T15:06:18.274Z,7.47
2022-11-28T15:08:55.584Z,8.48
2022-11-28T15:11:58.662Z,7.60
2022-11-28T15:14:33.120Z,7.35
2022-11-28T15:17:10.645Z,8.77
2022-11-28T15:19:46.804Z,7.75
2022-11-28T15:22:31.824Z,8.32
2022-11-28T15:25:05.369Z,6.95
2022-11-28T15:27:31.877Z,6.90
2022-11-28T15:30:00.776Z,6.68
2022-11-28T15:32:33.382Z,6.53
2022-11-28T15:35:07.716Z,6.53
2022-11-28T15:37:37.793Z,6.80
2022-11-28T15:40:07.069Z,6.50
2022-11-28T15:42:35.902Z,6.75
2022-11-28T15:45:14.424Z,7.15
2022-11-28T15:47:40.960Z,6.63
2022-11-28T15:50:10.195Z,7.88
2022-11-28T15:52:43.403Z,7.35
2022-11-28T15:55:16.571Z,7.72
2022-11-28T15:57:43.160Z,9.05
2022-11-28T16:00:22.692Z,8.27
2022-11-28T16:02:49.353Z,7.28
2022-11-28T16:05:22.664Z,8.40
2022-11-28T16:07:53.539Z,8.27
2022-11-28T16:10:32.245Z,8.48
2022-11-28T16:13:02.487Z,8.85
2022-11-28T16:15:30.144Z,7.93
2022-11-28T16:17:57.149Z,9.32
2022-11-28T16:20:28.755Z,9.50
2022-11-28T16:23:10.350Z,11.20
2022-11-28T16:25:44.548Z,9.35
2022-11-28T16:28:32.661Z,10.57
2022-11-28T16:31:04.002Z,11.35
2022-11-28T16:33:44.827Z,11.27
2022-11-28T16:36:29.206Z,10.63
2022-11-28T16:39:10.867Z,11.27
2022-11-28T16:41:51.957Z,11.35
2022-11-28T16:47:29.543Z,8.77
2022-11-28T16:50:04.748Z,9.13
2022-11-28T16:52:33.434Z,10.65
2022-11-28T16:55:00.366Z,9.40
2022-11-28T16:57:45.784Z,9.75
2022-11-28T17:00:12.820Z,8.20
2022-11-28T17:02:41.098Z,8.05
2022-11-28T17:05:09.381Z,8.68
2022-11-28T17:07:35.938Z,9.20
2022-11-28T17:10:02.498Z,7.55
2022-11-28T17:12:34.737Z,7.43
2022-11-28T17:15:01.205Z,8.40
2022-11-28T17:17:27.881Z,7.68
2022-11-28T17:19:56.161Z,7.60
2022-11-28T17:22:38.884Z,8.32
2022-11-28T17:25:13.610Z,7.50
2022-11-28T17:27:40.102Z,8.18
2022-11-28T17:30:07.656Z,6.75
2022-11-28T17:32:42.265Z,8.50
2022-11-28T17:35:22.912Z,8.55
2022-11-28T17:37:54.189Z,7.55
2022-11-28T17:40:32.997Z,9.93
2022-11-28T17:43:04.150Z,7.90
2022-11-28T17:45:34.713Z,7.57
2022-11-28T17:48:01.246Z,7.32
2022-11-28T17:50:27.924Z,7.57
2022-11-28T17:52:54.531Z,8.75
2022-11-28T17:55:24.753Z,7.65
2022-11-28T17:57:51.513Z,8.10
2022-11-28T18:00:18.320Z,6.93
2022-11-28T18:02:44.946Z,7.38
2022-11-28T18:05:11.776Z,7.93
2022-11-28T18:07:40.230Z,6.55
2022-11-28T18:10:07.445Z,6.93
2022-11-28T18:12:35.761Z,6.38
2022-11-28T18:15:02.248Z,6.70
2022-11-28T18:17:28.762Z,7.10
2022-11-28T18:19:59.761Z,6.60
2022-11-28T18:22:26.228Z,6.60
2022-11-28T18:24:52.726Z,6.50
2022-11-28T18:27:19.420Z,7.55
2022-11-28T18:29:46.421Z,7.70
2022-11-28T18:32:13.108Z,13.77
2022-11-28T18:34:41.420Z,13.15
2022-11-28T18:37:08.404Z,12.30
2022-11-28T18:39:34.999Z,12.43
2022-11-28T18:42:09.225Z,10.23
2022-11-28T18:44:35.729Z,9.93
2022-11-28T18:47:02.440Z,9.00
2022-11-28T18:49:30.784Z,8.82
2022-11-28T18:51:59.347Z,9.55
2022-11-28T18:54:26.030Z,8.90
2022-11-28T18:56:52.894Z,8.93
2022-11-28T18:59:20.143Z,8.57
2022-11-28T19:01:46.725Z,8.00
2022-11-28T19:04:17.285Z,7.60
2022-11-28T19:06:45.577Z,9.43
2022-11-28T19:09:14.982Z,8.13
2022-11-28T19:11:42.396Z,7.53
2022-11-28T19:14:14.308Z,7.25
2022-11-28T19:16:41.109Z,7.45
2022-11-28T19:19:09.374Z,7.80
2022-11-28T19:21:36.650Z,7.03
2022-11-28T19:24:03.963Z,6.97
2022-11-28T19:26:39.717Z,7.18
2022-11-28T19:29:09.625Z,7.03
2022-11-28T19:31:37.537Z,6.85
2022-11-28T19:34:13.041Z,6.85
2022-11-28T19:36:41.649Z,6.72
2022-11-28T19:39:24.792Z,6.63
2022-11-28T19:41:55.447Z,5.78
2022-11-28T19:44:35.353Z,6.85
2022-11-28T19:47:06.050Z,6.53
2022-11-28T19:49:34.047Z,6.60
2022-11-28T19:52:00.628Z,7.13
2022-11-28T19:54:27.149Z,6.53
2022-11-28T19:56:55.426Z,7.57
2022-11-28T19:59:31.500Z,8.90
2022-11-28T20:02:01.023Z,7.18
2022-11-28T20:04:27.614Z,10.45
2022-11-28T20:06:56.420Z,8.65
2022-11-28T20:09:23.013Z,8.30
2022-11-28T20:11:49.768Z,9.52
2022-11-28T20:14:20.087Z,9.02
2022-11-28T20:16:47.484Z,8.15
2022-11-28T20:19:15.010Z,7.75
2022-11-28T20:21:41.664Z,7.88
2022-11-28T20:24:08.400Z,8.60
2022-11-28T20:26:38.595Z,9.75
2022-11-28T20:29:06.707Z,8.88
2022-11-28T20:31:36.509Z,7.20
2022-11-28T20:34:06.092Z,6.80
2022-11-28T20:36:32.872Z,6.72
2022-11-28T20:38:59.956Z,5.60
2022-11-28T20:41:28.090Z,5.70
2022-11-28T20:43:55.090Z,6.65
2022-11-28T20:46:25.283Z,5.72
2022-11-28T20:48:51.845Z,5.55
2022-11-28T20:51:21.227Z,5.55
2022-11-28T20:53:51.695Z,5.82
2022-11-28T20:56:21.498Z,5.45
2022-11-28T20:58:48.787Z,5.70
2022-11-28T21:01:17.021Z,4.88
2022-11-28T21:03:44.405Z,5.45
2022-11-28T21:06:21.303Z,5.18
2022-11-28T21:08:47.900Z,4.70
2022-11-28T21:11:36.380Z,4.40
2022-11-28T21:14:05.118Z,4.35
2022-11-28T21:16:33.662Z,3.95
2022-11-28T21:19:07.576Z,4.88
2022-11-28T21:21:35.950Z,3.40
2022-11-28T21:24:05.934Z,3.63
2022-11-28T21:26:41.008Z,3.78
2022-11-28T21:29:11.984Z,3.22
2022-11-28T21:31:44.493Z,3.50
2022-11-28T21:34:14.544Z,3.50
2022-11-28T21:36:41.800Z,3.30
2022-11-28T21:39:15.130Z,3.20
2022-11-28T21:41:42.205Z,3.15
2022-11-28T21:44:09.003Z,2.70
2022-11-28T21:46:42.293Z,2.92
2022-11-28T21:49:08.803Z,3.53
2022-11-28T21:51:35.397Z,2.78
2022-11-28T21:54:04.448Z,2.45
2022-11-28T21:56:30.981Z,2.20
2022-11-28T21:58:59.810Z,2.50
2022-11-28T22:01:28.172Z,2.47
2022-11-28T22:04:00.597Z,2.33
2022-11-28T22:06:29.589Z,2.05
2022-11-28T22:08:56.576Z,1.90
2022-11-28T22:11:26.766Z,2.45
2022-11-28T22:13:53.520Z,2.22
2022-11-28T22:16:25.964Z,1.58
2022-11-28T22:18:59.086Z,1.65
2022-11-28T22:24:23.315Z,1.48
2022-11-28T22:26:52.786Z,1.40
2022-11-28T22:29:19.322Z,1.25
2022-11-28T22:31:46.116Z,1.55
2022-11-28T22:34:12.907Z,1.40
2022-11-28T22:36:39.469Z,1.60
2022-11-28T22:39:08.244Z,1.55
2022-11-28T22:41:34.733Z,1.48
2022-11-28T22:44:03.562Z,1.60
2022-11-28T22:46:36.954Z,2.00
2022-11-28T22:49:03.494Z,1.70
2022-11-28T22:51:31.164Z,1.80
2022-11-28T22:54:02.304Z,1.67
2022-11-28T22:56:31.013Z,1.60
2022-11-28T22:58:57.785Z,1.50
2022-11-28T23:01:30.379Z,1.85
2022-11-28T23:03:56.892Z,1.50
2022-11-28T23:06:26.497Z,1.50
2022-11-28T23:08:53.940Z,1.30
2022-11-28T23:11:23.436Z,1.00
2022-11-28T23:13:50.517Z,1.20
2022-11-28T23:16:30.230Z,1.08
2022-11-28T23:18:59.195Z,1.33
2022-11-28T23:21:28.224Z,0.98
2022-11-28T23:23:54.858Z,1.20
2022-11-28T23:26:24.366Z,1.05
2022-11-28T23:28:51.403Z,0.82
2022-11-28T23:31:27.636Z,1.00
2022-11-28T23:34:14.180Z,1.40
2022-11-28T23:36:45.345Z,1.50
2022-11-28T23:39:15.260Z,1.40
2022-11-28T23:41:42.370Z,1.90
2022-11-28T23:44:11.652Z,1.92
2022-11-28T23:46:38.632Z,1.88
2022-11-28T23:49:05.784Z,2.10
2022-11-28T23:51:32.712Z,1.88
2022-11-28T23:53:59.202Z,1.75
2022-11-28T23:56:28.560Z,1.60
2022-11-28T23:59:06.854Z,2.20
